Celebrity Equinox — 9HXD9 — position and weather

sailwx.info

Track history (hours):
 
Tides and Currents Weather Stations Pressure Air Temp Water Temp Dewpoint Dewpoint Depression Visibility Wind Speed Wind Dir Waves Ship Positions

Celebrity Equinox

Last reported at 2016-Feb-03 21:33 UTC. Time now 2016-Feb-06 20:47 UTC.
Position N 20°24' W 087°04'.

Length 317 m; draft 8.6 m.

Type: Ship. MMSI: 249667000.

Date/timePositionNaut miles runAvg speedWind from/ knotsBaromVisibWave heightAir tempDewpointWater temp
2016-Feb-03 21:33N 20°24' W 087°04'7 6.5
2016-Feb-03 20:26N 20°29' W 086°59'0 0.0
2016-Feb-03 19:32N 20°29' W 086°59'0 0.0
2016-Feb-03 18:31N 20°29' W 086°59'0 0.0
2016-Feb-03 17:31N 20°29' W 086°59'0 0.0
2016-Feb-03 16:31N 20°29' W 086°59'0 0.0
2016-Feb-03 15:33N 20°29' W 086°59'0 0.0
2016-Feb-03 14:33N 20°29' W 086°59'0 0.0
2016-Feb-03 13:32N 20°29' W 086°59'0 0.0
2016-Feb-03 12:32N 20°29' W 086°59'0 0.0
2016-Feb-03 11:33N 20°29' W 086°59'7 6.6
2016-Feb-03 10:34N 20°35' W 086°58'48813.9
2016-Feb-01 23:33N 25°36' W 080°00'1514.7
2016-Feb-01 22:33N 25°51' W 080°01'1514.9
2016-Feb-01 21:34N 26°05' W 080°05'2 1.9
2016-Feb-01 20:29N 26°05' W 080°07'0 0.0
2016-Feb-01 19:32N 26°05' W 080°07'0 0.0
2016-Feb-01 18:32N 26°05' W 080°07'0 0.0
2016-Feb-01 17:28N 26°05' W 080°07'0 0.0
2016-Feb-01 16:32N 26°05' W 080°07'0 0.0
2016-Feb-01 15:31N 26°05' W 080°07'0 0.0
2016-Feb-01 14:33N 26°05' W 080°07'0 0.0
2016-Feb-01 13:33N 26°05' W 080°07'0 0.0
2016-Feb-01 12:33N 26°05' W 080°07'0 0.0
2016-Feb-01 11:32N 26°05' W 080°07'1 1.1
2016-Feb-01 10:33N 26°06' W 080°06'1515.1
2016-Feb-01 09:33N 26°08' W 079°50'1818.5
2016-Feb-01 08:33N 26°12' W 079°29'5317.6
2016-Feb-01 05:32N 26°08' W 078°30'89917.6
2016-Jan-30 02:27N 18°54' W 064°18'1817.8
2016-Jan-30 01:25N 18°42' W 064°03'  
2016-Jan-26 21:30N 16°34' W 062°26'77 5.1
2016-Jan-26 06:24N 17°39' W 063°10'8 9.2
2016-Jan-26 05:33N 17°44' W 063°16'8912.2
2016-Jan-25 22:16N 18°11' W 064°45'1014.5
2016-Jan-25 21:33N 18°16' W 064°55'  
Track history (hours):
 
Tides and Currents Weather Stations Pressure Air Temp Water Temp Dewpoint Dewpoint Depression Visibility Wind Speed Wind Dir Waves Ship Positions

Celebrity Equinox

Last reported at 2016-Feb-03 21:33 UTC. Time now 2016-Feb-06 20:47 UTC.
Position N 20°24' W 087°04'.

Length 317 m; draft 8.6 m.

Type: Ship. MMSI: 249667000.

Date/timePositionNaut miles runAvg speedWind from/ knotsBaromVisibWave heightAir tempDewpointWater temp
2016-Feb-03 21:33N 20°24' W 087°04'7 6.5
2016-Feb-03 20:26N 20°29' W 086°59'0 0.0
2016-Feb-03 19:32N 20°29' W 086°59'0 0.0
2016-Feb-03 18:31N 20°29' W 086°59'0 0.0
2016-Feb-03 17:31N 20°29' W 086°59'0 0.0
2016-Feb-03 16:31N 20°29' W 086°59'0 0.0
2016-Feb-03 15:33N 20°29' W 086°59'0 0.0
2016-Feb-03 14:33N 20°29' W 086°59'0 0.0
2016-Feb-03 13:32N 20°29' W 086°59'0 0.0
2016-Feb-03 12:32N 20°29' W 086°59'0 0.0
2016-Feb-03 11:33N 20°29' W 086°59'7 6.6
2016-Feb-03 10:34N 20°35' W 086°58'48813.9
2016-Feb-01 23:33N 25°36' W 080°00'1514.7
2016-Feb-01 22:33N 25°51' W 080°01'1514.9
2016-Feb-01 21:34N 26°05' W 080°05'2 1.9
2016-Feb-01 20:29N 26°05' W 080°07'0 0.0
2016-Feb-01 19:32N 26°05' W 080°07'0 0.0
2016-Feb-01 18:32N 26°05' W 080°07'0 0.0
2016-Feb-01 17:28N 26°05' W 080°07'0 0.0
2016-Feb-01 16:32N 26°05' W 080°07'0 0.0
2016-Feb-01 15:31N 26°05' W 080°07'0 0.0
2016-Feb-01 14:33N 26°05' W 080°07'0 0.0
2016-Feb-01 13:33N 26°05' W 080°07'0 0.0
2016-Feb-01 12:33N 26°05' W 080°07'0 0.0
2016-Feb-01 11:32N 26°05' W 080°07'1 1.1
2016-Feb-01 10:33N 26°06' W 080°06'1515.1
2016-Feb-01 09:33N 26°08' W 079°50'1818.5
2016-Feb-01 08:33N 26°12' W 079°29'5317.6
2016-Feb-01 05:32N 26°08' W 078°30'89917.6
2016-Jan-30 02:27N 18°54' W 064°18'1817.8
2016-Jan-30 01:25N 18°42' W 064°03'  
2016-Jan-26 21:30N 16°34' W 062°26'77 5.1
2016-Jan-26 06:24N 17°39' W 063°10'8 9.2
2016-Jan-26 05:33N 17°44' W 063°16'8912.2
2016-Jan-25 22:16N 18°11' W 064°45'1014.5
2016-Jan-25 21:33N 18°16' W 064°55'  

Dump ship's entire track history